createdAt,value
2022-11-06T00:01:37.994Z,11.23
2022-11-06T00:04:05.163Z,9.30
2022-11-06T00:06:49.487Z,12.27
2022-11-06T00:09:21.391Z,8.93
2022-11-06T00:11:50.285Z,10.93
2022-11-06T00:14:18.167Z,10.55
2022-11-06T00:16:47.093Z,8.88
2022-11-06T00:19:15.872Z,11.23
2022-11-06T00:21:43.923Z,10.90
2022-11-06T00:24:13.722Z,11.63
2022-11-06T00:26:40.828Z,9.43
2022-11-06T00:29:13.618Z,13.20
2022-11-06T00:31:40.535Z,11.18
2022-11-06T00:34:07.796Z,10.20
2022-11-06T00:36:35.320Z,12.00
2022-11-06T00:39:02.204Z,11.80
2022-11-06T00:41:29.101Z,12.10
2022-11-06T00:43:58.653Z,13.07
2022-11-06T00:46:26.058Z,10.85
2022-11-06T00:48:54.126Z,11.60
2022-11-06T00:51:26.998Z,11.30
2022-11-06T00:53:55.918Z,9.20
2022-11-06T00:56:23.451Z,12.27
2022-11-06T00:58:50.699Z,12.70
2022-11-06T01:01:17.630Z,9.15
2022-11-06T01:03:46.324Z,12.50
2022-11-06T01:06:18.770Z,11.32
2022-11-06T01:08:46.872Z,9.32
2022-11-06T01:11:23.661Z,12.93
2022-11-06T01:13:53.645Z,10.23
2022-11-06T01:16:20.869Z,11.57
2022-11-06T01:18:48.272Z,11.10
2022-11-06T01:21:22.068Z,10.10
2022-11-06T01:23:56.402Z,11.27
2022-11-06T01:26:37.224Z,11.98
2022-11-06T01:29:07.627Z,11.63
2022-11-06T01:31:35.272Z,11.07
2022-11-06T01:34:03.229Z,11.60
2022-11-06T01:36:30.855Z,10.77
2022-11-06T01:39:00.785Z,9.85
2022-11-06T01:41:33.450Z,12.18
2022-11-06T01:44:25.238Z,12.32
2022-11-06T01:46:52.210Z,12.48
2022-11-06T01:49:19.139Z,14.32
2022-11-06T01:51:53.382Z,10.50
2022-11-06T01:54:21.987Z,13.13
2022-11-06T01:56:51.484Z,12.85
2022-11-06T01:59:21.895Z,13.07
2022-11-06T02:01:49.114Z,12.90
2022-11-06T02:04:27.188Z,11.65
2022-11-06T02:06:55.376Z,11.38
2022-11-06T02:09:22.427Z,13.00
2022-11-06T02:12:08.382Z,12.80
2022-11-06T02:15:01.163Z,12.85
2022-11-06T02:17:49.934Z,12.32
2022-11-06T02:20:46.733Z,8.80
2022-11-06T02:23:41.139Z,13.52
2022-11-06T02:26:20.050Z,14.00
2022-11-06T02:29:25.790Z,13.77
2022-11-06T02:31:56.148Z,15.27
2022-11-06T02:34:27.541Z,11.02
2022-11-06T02:37:00.383Z,14.63
2022-11-06T02:39:29.306Z,11.18
2022-11-06T02:41:58.747Z,15.20
2022-11-06T02:44:30.329Z,11.88
2022-11-06T02:47:01.858Z,13.93
2022-11-06T02:49:40.259Z,15.38
2022-11-06T02:52:13.635Z,14.13
2022-11-06T02:54:47.684Z,11.63
2022-11-06T02:57:18.112Z,11.70
2022-11-06T02:59:54.901Z,12.73
2022-11-06T03:02:28.003Z,14.88
2022-11-06T03:05:04.847Z,13.15
2022-11-06T03:07:37.757Z,13.38
2022-11-06T03:10:06.935Z,13.40
2022-11-06T03:12:56.040Z,11.73
2022-11-06T03:15:38.512Z,11.57
2022-11-06T03:18:20.412Z,12.25
2022-11-06T03:21:08.104Z,14.75
2022-11-06T03:23:48.568Z,12.38
2022-11-06T03:26:22.206Z,13.15
2022-11-06T03:28:57.682Z,11.00
2022-11-06T03:31:33.584Z,11.07
2022-11-06T03:34:09.033Z,13.02
2022-11-06T03:36:42.780Z,12.45
2022-11-06T03:39:15.542Z,12.15
2022-11-06T03:44:12.646Z,12.25
2022-11-06T03:46:46.719Z,13.13
2022-11-06T03:49:18.698Z,14.07
2022-11-06T03:51:45.431Z,12.23
2022-11-06T03:54:20.389Z,9.77
2022-11-06T03:56:55.197Z,11.82
2022-11-06T03:59:27.268Z,12.57
2022-11-06T04:01:57.124Z,11.10
2022-11-06T04:04:33.846Z,11.10
2022-11-06T04:07:06.571Z,11.77
2022-11-06T04:12:43.223Z,11.90
2022-11-06T04:15:15.263Z,11.93
2022-11-06T04:17:42.252Z,10.77
2022-11-06T04:20:32.952Z,11.95
2022-11-06T04:23:31.129Z,11.60
2022-11-06T04:26:37.334Z,10.60
2022-11-06T04:29:25.162Z,9.32
2022-11-06T04:32:14.066Z,10.40
2022-11-06T04:34:59.936Z,12.23
2022-11-06T04:37:53.307Z,12.00
2022-11-06T04:40:51.693Z,12.95
2022-11-06T04:43:28.697Z,10.88
2022-11-06T04:45:58.820Z,10.90
2022-11-06T04:48:26.509Z,11.73
2022-11-06T04:50:59.549Z,10.85
2022-11-06T04:53:29.482Z,11.63
2022-11-06T04:56:01.517Z,12.30
2022-11-06T04:58:28.420Z,11.73
2022-11-06T05:00:55.318Z,10.55
2022-11-06T05:03:22.271Z,11.48
2022-11-06T05:05:49.323Z,11.98
2022-11-06T05:08:19.181Z,12.15
2022-11-06T05:10:47.279Z,11.93
2022-11-06T05:13:15.337Z,10.68
2022-11-06T05:15:42.216Z,10.80
2022-11-06T05:18:09.569Z,11.75
2022-11-06T05:20:36.617Z,8.35
2022-11-06T05:23:04.161Z,9.30
2022-11-06T05:25:37.048Z,11.45
2022-11-06T05:28:08.478Z,11.25
2022-11-06T05:30:37.258Z,8.48
2022-11-06T05:33:04.189Z,11.32
2022-11-06T05:35:31.649Z,11.13
2022-11-06T05:38:00.373Z,9.43
2022-11-06T05:40:27.339Z,10.73
2022-11-06T05:42:54.643Z,10.07
2022-11-06T05:45:21.529Z,10.85
2022-11-06T05:47:48.503Z,12.43
2022-11-06T05:50:18.157Z,9.15
2022-11-06T05:52:45.228Z,8.77
2022-11-06T05:55:15.195Z,9.75
2022-11-06T05:57:42.784Z,10.43
2022-11-06T06:00:11.597Z,10.63
2022-11-06T06:02:43.191Z,8.85
2022-11-06T06:05:10.669Z,9.90
2022-11-06T06:07:37.665Z,9.35
2022-11-06T06:10:05.030Z,10.55
2022-11-06T06:12:31.917Z,8.30
2022-11-06T06:14:58.928Z,10.55
2022-11-06T06:17:26.292Z,10.88
2022-11-06T06:19:53.472Z,9.70
2022-11-06T06:22:20.285Z,11.48
2022-11-06T06:24:47.319Z,7.90
2022-11-06T06:27:14.321Z,10.27
2022-11-06T06:29:41.143Z,9.45
2022-11-06T06:32:08.033Z,9.63
2022-11-06T06:34:34.922Z,10.57
2022-11-06T06:37:01.852Z,11.40
2022-11-06T06:39:28.930Z,11.77
2022-11-06T06:41:55.989Z,9.32
2022-11-06T10:20:10.135Z,11.52
2022-11-06T10:22:40.387Z,10.82
2022-11-06T10:26:02.184Z,8.35
2022-11-06T10:29:00.768Z,8.15
2022-11-06T10:31:39.423Z,9.60
2022-11-06T10:34:18.787Z,10.93
2022-11-06T10:36:53.098Z,10.13
2022-11-06T10:39:29.141Z,9.35
2022-11-06T10:42:03.883Z,6.25
2022-11-06T10:44:39.894Z,6.88
2022-11-06T10:47:12.209Z,8.75
2022-11-06T10:49:48.613Z,7.25
2022-11-06T10:52:29.649Z,8.82
2022-11-06T10:55:16.121Z,6.68
2022-11-06T10:57:52.151Z,8.18
2022-11-06T11:00:19.765Z,7.05
2022-11-06T11:02:58.262Z,6.88
2022-11-06T11:05:28.116Z,7.20
2022-11-06T11:07:55.595Z,7.70
2022-11-06T11:10:30.477Z,7.03
2022-11-06T11:13:07.154Z,8.15
2022-11-06T11:15:47.031Z,7.78
2022-11-06T11:18:18.789Z,7.03
2022-11-06T11:20:51.371Z,7.10
2022-11-06T11:23:25.013Z,6.60
2022-11-06T11:25:55.026Z,6.15
2022-11-06T11:28:28.141Z,6.28
2022-11-06T11:31:14.101Z,6.25
2022-11-06T11:33:50.527Z,7.35
2022-11-06T11:36:18.530Z,8.07
2022-11-06T11:38:47.188Z,6.40
2022-11-06T11:41:22.157Z,6.90
2022-11-06T11:44:14.198Z,6.32
2022-11-06T11:46:51.958Z,7.35
2022-11-06T11:49:31.626Z,7.05
2022-11-06T11:52:03.013Z,7.93
2022-11-06T11:54:35.812Z,6.30
2022-11-06T11:57:16.833Z,5.45
2022-11-06T12:00:06.492Z,7.88
2022-11-06T12:02:41.464Z,5.55
2022-11-06T12:05:14.286Z,5.97
2022-11-06T12:10:27.124Z,6.03
2022-11-06T12:12:56.361Z,6.30
2022-11-06T12:15:40.833Z,8.50
2022-11-06T12:18:16.904Z,7.72
2022-11-06T12:20:55.110Z,8.30
2022-11-06T12:23:28.560Z,7.35
2022-11-06T12:26:20.150Z,7.75
2022-11-06T12:28:51.575Z,8.45
2022-11-06T12:31:33.894Z,6.50
2022-11-06T12:34:07.507Z,6.43
2022-11-06T12:36:41.664Z,8.18
2022-11-06T12:39:19.881Z,7.30
2022-11-06T12:41:50.876Z,7.47
2022-11-06T12:44:18.115Z,6.85
2022-11-06T12:46:59.505Z,6.93
2022-11-06T12:50:04.521Z,7.10
2022-11-06T12:53:11.869Z,8.05
2022-11-06T12:55:49.946Z,7.65
2022-11-06T12:58:55.975Z,7.72
2022-11-06T13:01:59.324Z,6.97
2022-11-06T13:04:33.865Z,6.85
2022-11-06T13:07:47.455Z,6.90
2022-11-06T13:10:37.225Z,6.97
2022-11-06T13:13:15.115Z,4.47
2022-11-06T13:16:10.550Z,6.85
2022-11-06T13:18:43.287Z,6.55
2022-11-06T13:23:48.241Z,6.80
2022-11-06T13:26:18.241Z,5.90
2022-11-06T13:28:50.157Z,5.53
2022-11-06T13:31:20.514Z,6.90
2022-11-06T13:33:51.899Z,6.50
2022-11-06T13:36:20.197Z,7.32
2022-11-06T13:38:55.869Z,7.10
2022-11-06T13:41:27.962Z,7.47
2022-11-06T13:44:16.107Z,6.38
2022-11-06T13:46:54.378Z,7.13
2022-11-06T13:49:36.285Z,8.18
2022-11-06T13:52:09.381Z,7.50
2022-11-06T13:55:03.738Z,7.03
2022-11-06T13:57:45.923Z,7.43
2022-11-06T14:00:22.050Z,6.30
2022-11-06T14:03:15.018Z,6.60
2022-11-06T14:05:51.408Z,6.68
2022-11-06T14:08:24.677Z,7.65
2022-11-06T14:10:56.936Z,5.22
2022-11-06T14:13:35.466Z,6.90
2022-11-06T14:16:26.873Z,7.25
2022-11-06T14:18:58.154Z,7.97
2022-11-06T14:21:28.713Z,6.40
2022-11-06T14:24:27.913Z,7.05
2022-11-06T14:26:55.199Z,6.63
2022-11-06T14:29:27.865Z,5.80
2022-11-06T14:37:18.684Z,5.88
2022-11-06T14:39:51.923Z,7.07
2022-11-06T14:42:39.749Z,7.65
2022-11-06T14:45:15.766Z,5.95
2022-11-06T14:47:56.782Z,7.38
2022-11-06T14:50:34.890Z,7.43
2022-11-06T14:53:06.264Z,6.45
2022-11-06T14:55:47.203Z,8.00
2022-11-06T14:58:17.466Z,8.38
2022-11-06T15:00:47.362Z,5.57
2022-11-06T15:03:43.276Z,8.00
2022-11-06T15:06:19.365Z,7.93
2022-11-06T15:08:49.082Z,7.28
2022-11-06T15:11:35.075Z,7.75
2022-11-06T15:14:07.803Z,8.65
2022-11-06T15:16:43.677Z,8.10
2022-11-06T15:19:34.140Z,7.75
2022-11-06T15:22:14.532Z,7.22
2022-11-06T15:24:48.390Z,8.95
2022-11-06T15:27:33.700Z,8.65
2022-11-06T15:30:04.219Z,7.60
2022-11-06T15:32:38.322Z,5.20
2022-11-06T15:35:15.777Z,7.88
2022-11-06T15:37:58.819Z,8.13
2022-11-06T15:43:09.388Z,4.30
2022-11-06T15:45:36.358Z,6.50
2022-11-06T15:48:17.710Z,8.57
2022-11-06T15:50:44.572Z,8.52
2022-11-06T15:53:14.571Z,7.63
2022-11-06T15:55:55.144Z,8.50
2022-11-06T15:58:24.703Z,7.65
2022-11-06T16:00:54.078Z,9.20
2022-11-06T16:03:23.538Z,9.90
2022-11-06T16:05:50.975Z,10.10
2022-11-06T16:08:20.430Z,10.75
2022-11-06T16:10:50.895Z,8.40
2022-11-06T16:13:20.699Z,9.35
2022-11-06T16:16:00.651Z,12.35
2022-11-06T16:18:33.600Z,8.45
2022-11-06T16:23:48.325Z,9.88
2022-11-06T16:26:25.236Z,9.85
2022-11-06T16:28:54.151Z,10.77
2022-11-06T16:31:24.356Z,9.55
2022-11-06T16:33:59.026Z,12.30
2022-11-06T16:36:31.263Z,11.93
2022-11-06T16:39:17.140Z,13.20
2022-11-06T16:42:04.282Z,11.63
2022-11-06T16:44:39.790Z,11.45
2022-11-06T16:47:23.296Z,11.80
2022-11-06T16:49:53.982Z,12.60
2022-11-06T16:52:29.981Z,11.18
2022-11-06T16:55:02.928Z,10.93
2022-11-06T16:57:33.974Z,11.57
2022-11-06T17:00:23.123Z,12.23
2022-11-06T17:02:57.595Z,9.80
2022-11-06T17:05:29.676Z,12.95
2022-11-06T17:08:07.351Z,9.95
2022-11-06T17:10:38.888Z,13.32
2022-11-06T17:13:31.309Z,12.43
2022-11-06T17:16:01.045Z,12.82
2022-11-06T17:18:36.734Z,11.52
2022-11-06T17:21:06.879Z,13.13
2022-11-06T17:23:34.066Z,13.35
2022-11-06T17:26:14.791Z,11.98
2022-11-06T17:28:41.693Z,10.80
2022-11-06T17:31:13.809Z,12.80
2022-11-06T17:33:41.844Z,13.10
2022-11-06T17:36:19.141Z,13.02
2022-11-06T17:38:46.648Z,12.25
2022-11-06T17:41:29.921Z,12.63
2022-11-06T17:44:01.430Z,13.25
2022-11-06T17:46:32.656Z,12.65
2022-11-06T17:49:00.378Z,12.63
2022-11-06T17:51:46.026Z,11.50
2022-11-06T17:54:13.347Z,12.52
2022-11-06T17:56:40.540Z,10.82
2022-11-06T17:59:09.666Z,9.65
2022-11-06T18:01:36.960Z,7.93
2022-11-06T18:04:04.482Z,11.27
2022-11-06T18:06:31.969Z,12.68
2022-11-06T18:09:01.751Z,12.95
2022-11-06T18:11:29.178Z,11.48
2022-11-06T18:13:56.631Z,12.27
2022-11-06T18:16:27.648Z,10.23
2022-11-06T18:18:55.456Z,11.23
2022-11-06T18:21:22.898Z,9.15
2022-11-06T18:23:49.797Z,11.52
2022-11-06T18:26:17.751Z,10.45
2022-11-06T18:28:44.773Z,9.52
2022-11-06T18:31:12.735Z,11.18
2022-11-06T18:33:39.717Z,12.40
2022-11-06T18:36:08.630Z,11.55
2022-11-06T18:38:36.216Z,12.40
2022-11-06T18:41:10.481Z,10.07
2022-11-06T18:43:37.605Z,12.07
2022-11-06T18:46:07.683Z,12.60
2022-11-06T18:48:34.917Z,12.18
2022-11-06T18:51:34.368Z,12.38
2022-11-06T18:54:04.950Z,10.80
2022-11-06T18:56:32.451Z,10.82
2022-11-06T18:59:01.900Z,10.10
2022-11-06T19:01:29.843Z,11.38
2022-11-06T19:03:56.919Z,11.95
2022-11-06T19:06:23.777Z,12.15
2022-11-06T19:08:50.979Z,13.55
2022-11-06T19:11:19.034Z,11.82
2022-11-06T19:13:48.307Z,11.70
2022-11-06T19:16:18.645Z,9.73
2022-11-06T19:18:45.553Z,10.40
2022-11-06T19:21:13.397Z,11.50
2022-11-06T19:23:46.487Z,10.43
2022-11-06T19:26:32.396Z,9.48
2022-11-06T19:29:00.379Z,11.75
2022-11-06T19:31:31.921Z,10.48
2022-11-06T19:34:00.410Z,9.50
2022-11-06T19:36:28.102Z,14.10
2022-11-06T19:38:55.185Z,10.73
2022-11-06T19:41:22.091Z,12.18
2022-11-06T19:43:49.010Z,12.07
2022-11-06T19:46:23.382Z,11.15
2022-11-06T19:48:51.760Z,9.88
2022-11-06T19:51:18.778Z,11.00
2022-11-06T19:53:45.826Z,12.43
2022-11-06T19:56:16.647Z,10.85
2022-11-06T19:58:44.146Z,12.02
2022-11-06T20:01:13.394Z,14.23
2022-11-06T20:03:41.189Z,11.32
2022-11-06T20:06:08.531Z,11.27
2022-11-06T20:08:39.658Z,10.93
2022-11-06T20:11:13.715Z,10.23
2022-11-06T20:13:41.845Z,11.07
2022-11-06T20:16:14.712Z,11.02
2022-11-06T20:18:42.283Z,10.88
2022-11-06T20:21:11.128Z,11.82
2022-11-06T20:23:38.776Z,10.65
2022-11-06T20:26:06.486Z,10.20
2022-11-06T20:28:33.986Z,11.05
2022-11-06T20:31:10.987Z,9.82
2022-11-06T20:33:40.231Z,9.88
2022-11-06T20:36:13.236Z,11.32
2022-11-06T20:38:40.875Z,8.80
2022-11-06T20:41:07.887Z,8.50
2022-11-06T20:43:34.682Z,10.45
2022-11-06T20:46:02.984Z,10.20
2022-11-06T20:48:31.622Z,11.95
2022-11-06T20:51:07.482Z,11.57
2022-11-06T20:53:35.253Z,9.73
2022-11-06T20:56:05.260Z,11.40
2022-11-06T20:58:32.714Z,10.75
2022-11-06T21:01:04.586Z,12.43
2022-11-06T21:03:32.203Z,12.07
2022-11-06T21:05:59.382Z,11.50
2022-11-06T21:08:28.066Z,11.18
2022-11-06T21:11:06.139Z,11.90
2022-11-06T21:13:34.459Z,10.27
2022-11-06T21:16:04.487Z,12.38
2022-11-06T21:18:34.332Z,12.63
2022-11-06T21:21:06.121Z,11.60
2022-11-06T21:23:34.429Z,11.67
2022-11-06T21:26:09.969Z,9.98
2022-11-06T21:28:38.024Z,11.60
2022-11-06T21:31:07.906Z,11.63
2022-11-06T21:33:35.067Z,11.57
2022-11-06T21:36:12.732Z,11.15
2022-11-06T21:38:40.031Z,9.13
2022-11-06T21:41:08.596Z,9.70
2022-11-06T21:43:35.922Z,9.63
2022-11-06T21:46:04.828Z,10.90
2022-11-06T21:48:45.860Z,11.85
2022-11-06T21:51:20.331Z,13.25
2022-11-06T21:54:07.155Z,12.23
2022-11-06T21:56:34.962Z,12.55
2022-11-06T21:59:03.684Z,13.50
2022-11-06T22:01:31.717Z,13.88
2022-11-06T22:03:59.664Z,11.32
2022-11-06T22:06:28.059Z,11.68
2022-11-06T22:08:57.188Z,12.60
2022-11-06T22:11:28.496Z,12.15
2022-11-06T22:13:57.876Z,14.43
2022-11-06T22:16:28.271Z,12.23
2022-11-06T22:18:56.056Z,13.57
2022-11-06T22:21:25.609Z,12.38
2022-11-06T22:23:53.273Z,13.23
2022-11-06T22:26:24.139Z,13.77
2022-11-06T22:28:56.716Z,13.52
2022-11-06T22:31:24.508Z,12.27
2022-11-06T22:33:53.971Z,12.75
2022-11-06T22:36:21.588Z,13.27
2022-11-06T22:38:49.071Z,12.30
2022-11-06T22:41:19.805Z,14.32
2022-11-06T22:43:46.729Z,14.05
2022-11-06T22:46:19.927Z,13.55
2022-11-06T22:48:47.555Z,12.77
2022-11-06T22:51:17.787Z,14.02
2022-11-06T22:53:44.763Z,15.05
2022-11-06T22:56:14.615Z,11.38
2022-11-06T22:58:41.818Z,14.32
2022-11-06T23:01:10.552Z,13.23
2022-11-06T23:03:38.009Z,15.02
2022-11-06T23:06:07.827Z,12.00
2022-11-06T23:08:39.721Z,12.07
2022-11-06T23:11:12.355Z,12.07
2022-11-06T23:13:40.024Z,13.70
2022-11-06T23:16:46.860Z,14.60
2022-11-06T23:19:19.537Z,11.00
2022-11-06T23:21:46.527Z,14.10
2022-11-06T23:24:13.440Z,13.82
2022-11-06T23:26:43.177Z,13.77
2022-11-06T23:29:10.085Z,13.55
2022-11-06T23:31:37.023Z,13.85
2022-11-06T23:34:03.984Z,13.65
2022-11-06T23:36:30.913Z,12.75
2022-11-06T23:38:57.792Z,14.35
2022-11-06T23:41:43.200Z,14.50
2022-11-06T23:44:30.342Z,13.75
2022-11-06T23:46:58.544Z,12.20
2022-11-06T23:49:25.983Z,12.85
2022-11-06T23:51:52.928Z,11.57
2022-11-06T23:54:19.770Z,13.73
2022-11-06T23:56:46.689Z,12.93
2022-11-06T23:59:13.605Z,11.70
